sensor_id;sensor_type;location;lat;lon;timestamp;P1;durP1;ratioP1;P2;durP2;ratioP2
41875;SDS011;27555;50.808;4.402;2023-07-28T00:02:20;5.45;;;2.70;;
41875;SDS011;27555;50.808;4.402;2023-07-28T00:04:46;4.72;;;2.67;;
41875;SDS011;27555;50.808;4.402;2023-07-28T00:07:11;3.60;;;2.88;;
41875;SDS011;27555;50.808;4.402;2023-07-28T00:09:37;4.82;;;2.45;;
41875;SDS011;27555;50.808;4.402;2023-07-28T00:12:03;6.97;;;3.38;;
41875;SDS011;27555;50.808;4.402;2023-07-28T00:14:28;4.45;;;3.00;;
41875;SDS011;27555;50.808;4.402;2023-07-28T00:16:55;3.95;;;2.75;;
41875;SDS011;27555;50.808;4.402;2023-07-28T00:19:22;6.15;;;2.67;;
41875;SDS011;27555;50.808;4.402;2023-07-28T00:21:48;6.90;;;3.38;;
41875;SDS011;27555;50.808;4.402;2023-07-28T00:24:14;5.80;;;3.42;;
41875;SDS011;27555;50.808;4.402;2023-07-28T00:26:40;5.57;;;3.40;;
41875;SDS011;27555;50.808;4.402;2023-07-28T00:29:06;7.78;;;3.20;;
41875;SDS011;27555;50.808;4.402;2023-07-28T00:31:32;4.10;;;3.05;;
41875;SDS011;27555;50.808;4.402;2023-07-28T00:33:59;5.32;;;3.15;;
41875;SDS011;27555;50.808;4.402;2023-07-28T00:36:25;7.30;;;3.28;;
41875;SDS011;27555;50.808;4.402;2023-07-28T00:38:51;8.38;;;3.13;;
41875;SDS011;27555;50.808;4.402;2023-07-28T00:41:16;5.03;;;2.92;;
41875;SDS011;27555;50.808;4.402;2023-07-28T00:43:42;12.25;;;3.88;;
41875;SDS011;27555;50.808;4.402;2023-07-28T00:46:08;4.22;;;2.70;;
41875;SDS011;27555;50.808;4.402;2023-07-28T00:48:35;7.07;;;3.47;;
41875;SDS011;27555;50.808;4.402;2023-07-28T00:51:01;4.07;;;3.10;;
41875;SDS011;27555;50.808;4.402;2023-07-28T00:53:27;11.18;;;3.00;;
41875;SDS011;27555;50.808;4.402;2023-07-28T00:55:53;5.47;;;3.88;;
41875;SDS011;27555;50.808;4.402;2023-07-28T00:58:20;5.28;;;3.30;;
41875;SDS011;27555;50.808;4.402;2023-07-28T01:00:46;6.97;;;3.67;;
41875;SDS011;27555;50.808;4.402;2023-07-28T01:03:12;5.05;;;3.15;;
41875;SDS011;27555;50.808;4.402;2023-07-28T01:10:54;5.18;;;3.45;;
41875;SDS011;27555;50.808;4.402;2023-07-28T01:13:20;10.18;;;4.05;;
41875;SDS011;27555;50.808;4.402;2023-07-28T01:15:45;7.65;;;3.22;;
41875;SDS011;27555;50.808;4.402;2023-07-28T01:18:11;7.20;;;3.30;;
41875;SDS011;27555;50.808;4.402;2023-07-28T01:20:36;6.40;;;3.33;;
41875;SDS011;27555;50.808;4.402;2023-07-28T01:28:26;6.47;;;3.70;;
41875;SDS011;27555;50.808;4.402;2023-07-28T01:30:52;7.57;;;3.78;;
41875;SDS011;27555;50.808;4.402;2023-07-28T01:33:18;4.57;;;3.53;;
41875;SDS011;27555;50.808;4.402;2023-07-28T01:35:44;5.60;;;3.88;;
41875;SDS011;27555;50.808;4.402;2023-07-28T01:38:10;7.65;;;4.00;;
41875;SDS011;27555;50.808;4.402;2023-07-28T01:40:35;13.30;;;3.80;;
41875;SDS011;27555;50.808;4.402;2023-07-28T01:43:01;7.00;;;4.63;;
41875;SDS011;27555;50.808;4.402;2023-07-28T01:45:26;7.10;;;3.35;;
41875;SDS011;27555;50.808;4.402;2023-07-28T01:47:52;7.13;;;4.25;;
41875;SDS011;27555;50.808;4.402;2023-07-28T01:50:18;8.93;;;4.47;;
41875;SDS011;27555;50.808;4.402;2023-07-28T01:52:43;8.40;;;5.00;;
41875;SDS011;27555;50.808;4.402;2023-07-28T01:55:09;8.15;;;4.93;;
41875;SDS011;27555;50.808;4.402;2023-07-28T01:57:34;8.30;;;5.32;;
41875;SDS011;27555;50.808;4.402;2023-07-28T02:00:03;12.52;;;5.30;;
41875;SDS011;27555;50.808;4.402;2023-07-28T02:02:30;7.38;;;4.63;;
41875;SDS011;27555;50.808;4.402;2023-07-28T02:04:55;7.63;;;4.43;;
41875;SDS011;27555;50.808;4.402;2023-07-28T02:07:21;7.85;;;5.03;;
41875;SDS011;27555;50.808;4.402;2023-07-28T02:09:46;7.70;;;4.97;;
41875;SDS011;27555;50.808;4.402;2023-07-28T02:12:12;9.52;;;5.13;;
41875;SDS011;27555;50.808;4.402;2023-07-28T02:14:37;14.48;;;4.93;;
41875;SDS011;27555;50.808;4.402;2023-07-28T02:17:03;8.57;;;5.10;;
41875;SDS011;27555;50.808;4.402;2023-07-28T02:19:29;9.82;;;4.68;;
41875;SDS011;27555;50.808;4.402;2023-07-28T02:21:54;10.88;;;5.03;;
41875;SDS011;27555;50.808;4.402;2023-07-28T02:24:20;7.45;;;4.78;;
41875;SDS011;27555;50.808;4.402;2023-07-28T02:26:45;11.13;;;4.88;;
41875;SDS011;27555;50.808;4.402;2023-07-28T02:29:11;8.57;;;4.80;;
41875;SDS011;27555;50.808;4.402;2023-07-28T02:31:36;9.95;;;4.97;;
41875;SDS011;27555;50.808;4.402;2023-07-28T02:34:02;12.93;;;5.18;;
41875;SDS011;27555;50.808;4.402;2023-07-28T02:36:28;11.70;;;5.10;;
41875;SDS011;27555;50.808;4.402;2023-07-28T02:38:53;11.00;;;4.70;;
41875;SDS011;27555;50.808;4.402;2023-07-28T02:41:20;11.93;;;5.63;;
41875;SDS011;27555;50.808;4.402;2023-07-28T02:43:45;7.45;;;4.25;;
41875;SDS011;27555;50.808;4.402;2023-07-28T02:46:11;6.65;;;4.47;;
41875;SDS011;27555;50.808;4.402;2023-07-28T02:48:36;9.10;;;4.93;;
41875;SDS011;27555;50.808;4.402;2023-07-28T02:51:02;7.38;;;5.10;;
41875;SDS011;27555;50.808;4.402;2023-07-28T02:53:27;9.48;;;4.82;;
41875;SDS011;27555;50.808;4.402;2023-07-28T02:55:53;7.88;;;5.20;;
41875;SDS011;27555;50.808;4.402;2023-07-28T02:58:19;5.63;;;4.57;;
41875;SDS011;27555;50.808;4.402;2023-07-28T03:00:44;10.93;;;5.00;;
41875;SDS011;27555;50.808;4.402;2023-07-28T03:03:11;8.85;;;4.93;;
41875;SDS011;27555;50.808;4.402;2023-07-28T03:05:37;8.75;;;4.20;;
41875;SDS011;27555;50.808;4.402;2023-07-28T03:08:04;8.25;;;4.07;;
41875;SDS011;27555;50.808;4.402;2023-07-28T03:10:31;8.65;;;4.63;;
41875;SDS011;27555;50.808;4.402;2023-07-28T03:12:57;9.38;;;4.43;;
41875;SDS011;27555;50.808;4.402;2023-07-28T03:15:22;9.90;;;4.70;;
41875;SDS011;27555;50.808;4.402;2023-07-28T03:17:49;7.30;;;4.22;;
41875;SDS011;27555;50.808;4.402;2023-07-28T03:20:15;9.48;;;4.28;;
41875;SDS011;27555;50.808;4.402;2023-07-28T03:22:41;5.22;;;4.03;;
41875;SDS011;27555;50.808;4.402;2023-07-28T03:25:07;7.43;;;4.10;;
41875;SDS011;27555;50.808;4.402;2023-07-28T03:27:33;7.55;;;3.92;;
41875;SDS011;27555;50.808;4.402;2023-07-28T03:29:59;11.38;;;4.53;;
41875;SDS011;27555;50.808;4.402;2023-07-28T03:32:25;6.22;;;3.83;;
41875;SDS011;27555;50.808;4.402;2023-07-28T03:34:50;6.47;;;4.43;;
41875;SDS011;27555;50.808;4.402;2023-07-28T03:37:16;10.65;;;4.30;;
41875;SDS011;27555;50.808;4.402;2023-07-28T03:39:41;8.63;;;4.15;;
41875;SDS011;27555;50.808;4.402;2023-07-28T03:42:07;6.28;;;4.18;;
41875;SDS011;27555;50.808;4.402;2023-07-28T03:44:33;5.50;;;3.63;;
41875;SDS011;27555;50.808;4.402;2023-07-28T03:46:59;7.65;;;3.63;;
41875;SDS011;27555;50.808;4.402;2023-07-28T03:49:24;6.68;;;3.83;;
41875;SDS011;27555;50.808;4.402;2023-07-28T03:51:50;8.90;;;3.83;;
41875;SDS011;27555;50.808;4.402;2023-07-28T03:54:16;6.88;;;3.13;;
41875;SDS011;27555;50.808;4.402;2023-07-28T03:56:41;7.40;;;3.45;;
41875;SDS011;27555;50.808;4.402;2023-07-28T03:59:07;5.25;;;3.50;;
41875;SDS011;27555;50.808;4.402;2023-07-28T04:01:32;10.95;;;4.07;;
41875;SDS011;27555;50.808;4.402;2023-07-28T04:03:58;5.32;;;3.20;;
41875;SDS011;27555;50.808;4.402;2023-07-28T04:06:47;7.18;;;3.17;;
41875;SDS011;27555;50.808;4.402;2023-07-28T04:09:15;8.13;;;3.30;;
41875;SDS011;27555;50.808;4.402;2023-07-28T04:11:42;6.13;;;3.08;;
41875;SDS011;27555;50.808;4.402;2023-07-28T04:14:08;15.10;;;4.20;;
41875;SDS011;27555;50.808;4.402;2023-07-28T04:16:33;8.23;;;3.15;;
41875;SDS011;27555;50.808;4.402;2023-07-28T04:18:59;4.88;;;3.13;;
41875;SDS011;27555;50.808;4.402;2023-07-28T04:21:25;3.85;;;3.13;;
41875;SDS011;27555;50.808;4.402;2023-07-28T04:23:50;13.10;;;2.40;;
41875;SDS011;27555;50.808;4.402;2023-07-28T04:26:16;6.18;;;3.00;;
41875;SDS011;27555;50.808;4.402;2023-07-28T04:28:43;4.32;;;2.80;;
41875;SDS011;27555;50.808;4.402;2023-07-28T04:31:08;3.78;;;2.38;;
41875;SDS011;27555;50.808;4.402;2023-07-28T04:33:35;6.78;;;2.72;;
41875;SDS011;27555;50.808;4.402;2023-07-28T04:36:02;5.85;;;2.55;;
41875;SDS011;27555;50.808;4.402;2023-07-28T04:38:28;3.45;;;2.55;;
41875;SDS011;27555;50.808;4.402;2023-07-28T04:40:53;3.42;;;2.88;;
41875;SDS011;27555;50.808;4.402;2023-07-28T04:43:19;6.35;;;2.67;;
41875;SDS011;27555;50.808;4.402;2023-07-28T04:45:45;6.45;;;2.90;;
41875;SDS011;27555;50.808;4.402;2023-07-28T04:48:10;5.20;;;3.03;;
41875;SDS011;27555;50.808;4.402;2023-07-28T04:50:36;3.03;;;2.33;;
41875;SDS011;27555;50.808;4.402;2023-07-28T04:53:02;6.43;;;2.30;;
41875;SDS011;27555;50.808;4.402;2023-07-28T04:55:28;4.65;;;2.35;;
41875;SDS011;27555;50.808;4.402;2023-07-28T04:57:53;6.53;;;2.05;;
41875;SDS011;27555;50.808;4.402;2023-07-28T05:00:19;5.30;;;2.30;;
41875;SDS011;27555;50.808;4.402;2023-07-28T05:02:45;4.53;;;2.33;;
41875;SDS011;27555;50.808;4.402;2023-07-28T05:05:10;3.65;;;2.20;;
41875;SDS011;27555;50.808;4.402;2023-07-28T05:07:36;3.17;;;2.30;;
41875;SDS011;27555;50.808;4.402;2023-07-28T05:10:02;5.75;;;2.53;;
41875;SDS011;27555;50.808;4.402;2023-07-28T05:12:27;4.13;;;1.95;;
41875;SDS011;27555;50.808;4.402;2023-07-28T05:14:53;6.20;;;2.58;;
41875;SDS011;27555;50.808;4.402;2023-07-28T05:17:19;4.95;;;1.77;;
41875;SDS011;27555;50.808;4.402;2023-07-28T05:19:44;5.72;;;2.13;;
41875;SDS011;27555;50.808;4.402;2023-07-28T05:22:10;6.15;;;2.20;;
41875;SDS011;27555;50.808;4.402;2023-07-28T05:24:36;4.75;;;1.98;;
41875;SDS011;27555;50.808;4.402;2023-07-28T05:27:01;2.90;;;1.88;;
41875;SDS011;27555;50.808;4.402;2023-07-28T05:29:27;2.88;;;1.77;;
41875;SDS011;27555;50.808;4.402;2023-07-28T05:31:52;3.53;;;1.85;;
41875;SDS011;27555;50.808;4.402;2023-07-28T05:34:18;3.33;;;1.65;;
41875;SDS011;27555;50.808;4.402;2023-07-28T05:36:43;3.65;;;1.85;;
41875;SDS011;27555;50.808;4.402;2023-07-28T05:39:09;2.22;;;1.10;;
41875;SDS011;27555;50.808;4.402;2023-07-28T05:41:36;2.65;;;1.25;;
41875;SDS011;27555;50.808;4.402;2023-07-28T05:44:02;1.80;;;0.88;;
41875;SDS011;27555;50.808;4.402;2023-07-28T05:46:28;1.80;;;0.75;;
41875;SDS011;27555;50.808;4.402;2023-07-28T05:48:54;2.40;;;0.80;;
41875;SDS011;27555;50.808;4.402;2023-07-28T05:51:21;3.78;;;0.63;;
41875;SDS011;27555;50.808;4.402;2023-07-28T05:53:47;3.13;;;1.10;;
41875;SDS011;27555;50.808;4.402;2023-07-28T05:56:12;2.47;;;0.98;;
41875;SDS011;27555;50.808;4.402;2023-07-28T05:58:38;1.67;;;0.90;;
41875;SDS011;27555;50.808;4.402;2023-07-28T06:01:04;2.08;;;1.20;;
41875;SDS011;27555;50.808;4.402;2023-07-28T06:03:29;3.58;;;1.58;;
41875;SDS011;27555;50.808;4.402;2023-07-28T06:05:55;4.70;;;1.45;;
41875;SDS011;27555;50.808;4.402;2023-07-28T06:08:21;2.53;;;1.10;;
41875;SDS011;27555;50.808;4.402;2023-07-28T06:10:47;2.67;;;1.40;;
41875;SDS011;27555;50.808;4.402;2023-07-28T06:13:13;1.67;;;1.15;;
41875;SDS011;27555;50.808;4.402;2023-07-28T06:15:39;4.18;;;2.22;;
41875;SDS011;27555;50.808;4.402;2023-07-28T06:18:05;2.97;;;1.60;;
41875;SDS011;27555;50.808;4.402;2023-07-28T06:20:31;3.33;;;1.65;;
41875;SDS011;27555;50.808;4.402;2023-07-28T06:22:56;4.60;;;1.40;;
41875;SDS011;27555;50.808;4.402;2023-07-28T06:25:22;2.08;;;1.50;;
41875;SDS011;27555;50.808;4.402;2023-07-28T06:27:47;1.70;;;1.30;;
41875;SDS011;27555;50.808;4.402;2023-07-28T06:30:13;4.32;;;1.67;;
41875;SDS011;27555;50.808;4.402;2023-07-28T06:32:39;2.53;;;1.42;;
41875;SDS011;27555;50.808;4.402;2023-07-28T06:35:05;2.95;;;1.77;;
41875;SDS011;27555;50.808;4.402;2023-07-28T06:37:32;4.18;;;1.80;;
41875;SDS011;27555;50.808;4.402;2023-07-28T06:39:58;2.58;;;1.80;;
41875;SDS011;27555;50.808;4.402;2023-07-28T06:42:24;2.65;;;1.95;;
41875;SDS011;27555;50.808;4.402;2023-07-28T06:44:50;2.63;;;1.85;;
41875;SDS011;27555;50.808;4.402;2023-07-28T06:47:16;1.75;;;1.63;;
41875;SDS011;27555;50.808;4.402;2023-07-28T06:49:42;3.58;;;1.92;;
41875;SDS011;27555;50.808;4.402;2023-07-28T06:52:08;3.08;;;1.85;;
41875;SDS011;27555;50.808;4.402;2023-07-28T06:54:34;2.92;;;1.90;;
41875;SDS011;27555;50.808;4.402;2023-07-28T06:56:59;2.97;;;1.80;;
41875;SDS011;27555;50.808;4.402;2023-07-28T06:59:25;2.72;;;1.80;;
41875;SDS011;27555;50.808;4.402;2023-07-28T07:01:51;2.80;;;1.73;;
41875;SDS011;27555;50.808;4.402;2023-07-28T07:04:16;2.17;;;1.63;;
41875;SDS011;27555;50.808;4.402;2023-07-28T07:06:42;3.28;;;1.65;;
41875;SDS011;27555;50.808;4.402;2023-07-28T07:09:08;3.67;;;1.45;;
41875;SDS011;27555;50.808;4.402;2023-07-28T07:11:33;2.97;;;1.85;;
41875;SDS011;27555;50.808;4.402;2023-07-28T07:14:00;4.50;;;1.75;;
41875;SDS011;27555;50.808;4.402;2023-07-28T07:16:26;2.95;;;1.80;;
41875;SDS011;27555;50.808;4.402;2023-07-28T07:18:51;6.47;;;2.10;;
41875;SDS011;27555;50.808;4.402;2023-07-28T07:21:17;4.22;;;1.73;;
41875;SDS011;27555;50.808;4.402;2023-07-28T07:23:43;3.80;;;1.45;;
41875;SDS011;27555;50.808;4.402;2023-07-28T07:26:09;1.67;;;1.40;;
41875;SDS011;27555;50.808;4.402;2023-07-28T07:28:34;3.38;;;1.02;;
41875;SDS011;27555;50.808;4.402;2023-07-28T07:31:00;3.63;;;1.20;;
41875;SDS011;27555;50.808;4.402;2023-07-28T07:33:26;1.95;;;0.75;;
41875;SDS011;27555;50.808;4.402;2023-07-28T07:35:52;1.85;;;0.60;;
41875;SDS011;27555;50.808;4.402;2023-07-28T07:38:18;1.35;;;0.70;;
41875;SDS011;27555;50.808;4.402;2023-07-28T07:40:46;1.55;;;0.80;;
41875;SDS011;27555;50.808;4.402;2023-07-28T07:43:13;5.65;;;1.10;;
41875;SDS011;27555;50.808;4.402;2023-07-28T07:45:44;0.77;;;0.73;;
41875;SDS011;27555;50.808;4.402;2023-07-28T07:48:11;7.05;;;1.27;;
41875;SDS011;27555;50.808;4.402;2023-07-28T07:50:37;3.13;;;1.05;;
41875;SDS011;27555;50.808;4.402;2023-07-28T07:53:03;5.72;;;1.38;;
41875;SDS011;27555;50.808;4.402;2023-07-28T07:55:29;1.40;;;1.20;;
41875;SDS011;27555;50.808;4.402;2023-07-28T07:57:56;3.72;;;1.27;;
41875;SDS011;27555;50.808;4.402;2023-07-28T08:00:22;2.60;;;1.63;;
41875;SDS011;27555;50.808;4.402;2023-07-28T08:02:48;1.40;;;1.20;;
41875;SDS011;27555;50.808;4.402;2023-07-28T08:05:15;2.13;;;1.30;;
41875;SDS011;27555;50.808;4.402;2023-07-28T08:07:41;3.58;;;0.98;;
41875;SDS011;27555;50.808;4.402;2023-07-28T08:10:07;2.35;;;1.33;;
41875;SDS011;27555;50.808;4.402;2023-07-28T08:12:33;1.10;;;1.00;;
41875;SDS011;27555;50.808;4.402;2023-07-28T08:14:59;9.25;;;1.42;;
41875;SDS011;27555;50.808;4.402;2023-07-28T08:17:25;1.13;;;0.93;;
41875;SDS011;27555;50.808;4.402;2023-07-28T08:19:50;1.10;;;0.70;;
41875;SDS011;27555;50.808;4.402;2023-07-28T08:22:16;1.55;;;0.70;;
41875;SDS011;27555;50.808;4.402;2023-07-28T08:24:41;0.95;;;0.80;;
41875;SDS011;27555;50.808;4.402;2023-07-28T08:27:07;1.60;;;0.90;;
41875;SDS011;27555;50.808;4.402;2023-07-28T08:29:33;1.90;;;0.93;;
41875;SDS011;27555;50.808;4.402;2023-07-28T08:31:58;3.28;;;1.15;;
41875;SDS011;27555;50.808;4.402;2023-07-28T08:34:24;1.30;;;0.75;;
41875;SDS011;27555;50.808;4.402;2023-07-28T08:36:49;3.33;;;0.68;;
41875;SDS011;27555;50.808;4.402;2023-07-28T08:39:15;3.17;;;0.60;;
41875;SDS011;27555;50.808;4.402;2023-07-28T08:41:43;0.70;;;0.70;;
41875;SDS011;27555;50.808;4.402;2023-07-28T08:44:08;6.07;;;1.05;;
41875;SDS011;27555;50.808;4.402;2023-07-28T08:46:34;2.60;;;0.45;;
41875;SDS011;27555;50.808;4.402;2023-07-28T08:49:01;2.28;;;0.75;;
41875;SDS011;27555;50.808;4.402;2023-07-28T08:51:27;0.40;;;0.40;;
41875;SDS011;27555;50.808;4.402;2023-07-28T08:53:52;3.08;;;0.60;;
41875;SDS011;27555;50.808;4.402;2023-07-28T08:56:18;0.40;;;0.40;;
41875;SDS011;27555;50.808;4.402;2023-07-28T08:58:45;2.05;;;0.50;;
41875;SDS011;27555;50.808;4.402;2023-07-28T09:01:10;0.93;;;0.30;;
41875;SDS011;27555;50.808;4.402;2023-07-28T09:03:39;0.38;;;0.38;;
41875;SDS011;27555;50.808;4.402;2023-07-28T09:06:06;0.45;;;0.30;;
41875;SDS011;27555;50.808;4.402;2023-07-28T09:08:34;0.70;;;0.40;;
41875;SDS011;27555;50.808;4.402;2023-07-28T09:11:01;0.30;;;0.30;;
41875;SDS011;27555;50.808;4.402;2023-07-28T09:13:34;0.60;;;0.35;;
41875;SDS011;27555;50.808;4.402;2023-07-28T09:16:01;1.17;;;0.50;;
41875;SDS011;27555;50.808;4.402;2023-07-28T09:18:27;2.83;;;0.57;;
41875;SDS011;27555;50.808;4.402;2023-07-28T09:20:53;0.40;;;0.40;;
41875;SDS011;27555;50.808;4.402;2023-07-28T09:23:26;3.08;;;0.60;;
41875;SDS011;27555;50.808;4.402;2023-07-28T09:25:58;1.55;;;0.80;;
41875;SDS011;27555;50.808;4.402;2023-07-28T09:28:44;1.67;;;0.93;;
41875;SDS011;27555;50.808;4.402;2023-07-28T09:31:10;4.10;;;0.95;;
41875;SDS011;27555;50.808;4.402;2023-07-28T09:33:36;3.05;;;1.20;;
41875;SDS011;27555;50.808;4.402;2023-07-28T09:36:07;4.20;;;1.00;;
41875;SDS011;27555;50.808;4.402;2023-07-28T09:38:37;1.38;;;0.95;;
41875;SDS011;27555;50.808;4.402;2023-07-28T09:41:07;1.75;;;1.20;;
41875;SDS011;27555;50.808;4.402;2023-07-28T09:43:39;1.33;;;0.73;;
41875;SDS011;27555;50.808;4.402;2023-07-28T09:48:32;2.00;;;0.93;;
41875;SDS011;27555;50.808;4.402;2023-07-28T09:51:00;3.20;;;1.50;;
41875;SDS011;27555;50.808;4.402;2023-07-28T09:53:30;1.13;;;0.93;;
41875;SDS011;27555;50.808;4.402;2023-07-28T09:56:01;1.67;;;0.95;;
41875;SDS011;27555;50.808;4.402;2023-07-28T09:58:27;2.00;;;1.13;;
41875;SDS011;27555;50.808;4.402;2023-07-28T10:00:58;1.00;;;0.90;;
41875;SDS011;27555;50.808;4.402;2023-07-28T10:03:24;2.28;;;1.10;;
41875;SDS011;27555;50.808;4.402;2023-07-28T10:05:50;1.48;;;1.08;;
41875;SDS011;27555;50.808;4.402;2023-07-28T10:08:16;5.80;;;1.48;;
41875;SDS011;27555;50.808;4.402;2023-07-28T10:10:42;1.02;;;0.95;;
41875;SDS011;27555;50.808;4.402;2023-07-28T10:13:18;2.03;;;1.27;;
41875;SDS011;27555;50.808;4.402;2023-07-28T10:15:45;1.73;;;1.05;;
41875;SDS011;27555;50.808;4.402;2023-07-28T10:18:12;1.92;;;0.80;;
41875;SDS011;27555;50.808;4.402;2023-07-28T10:20:39;2.00;;;1.05;;
41875;SDS011;27555;50.808;4.402;2023-07-28T10:28:03;1.27;;;1.17;;
41875;SDS011;27555;50.808;4.402;2023-07-28T10:30:51;1.80;;;0.90;;
41875;SDS011;27555;50.808;4.402;2023-07-28T10:33:29;2.60;;;1.63;;
41875;SDS011;27555;50.808;4.402;2023-07-28T10:35:56;1.25;;;1.08;;
41875;SDS011;27555;50.808;4.402;2023-07-28T10:38:30;2.53;;;0.90;;
41875;SDS011;27555;50.808;4.402;2023-07-28T10:41:07;1.73;;;1.05;;
41875;SDS011;27555;50.808;4.402;2023-07-28T10:43:36;1.00;;;0.90;;
41875;SDS011;27555;50.808;4.402;2023-07-28T10:46:02;1.98;;;1.60;;
41875;SDS011;27555;50.808;4.402;2023-07-28T10:48:29;2.88;;;1.40;;
41875;SDS011;27555;50.808;4.402;2023-07-28T10:50:55;3.28;;;1.90;;
41875;SDS011;27555;50.808;4.402;2023-07-28T10:53:20;4.03;;;2.35;;
41875;SDS011;27555;50.808;4.402;2023-07-28T10:55:46;4.93;;;2.90;;
41875;SDS011;27555;50.808;4.402;2023-07-28T10:58:12;4.30;;;3.10;;
41875;SDS011;27555;50.808;4.402;2023-07-28T11:00:37;3.28;;;2.92;;
41875;SDS011;27555;50.808;4.402;2023-07-28T11:03:03;9.13;;;3.10;;
41875;SDS011;27555;50.808;4.402;2023-07-28T11:05:29;16.08;;;3.40;;
41875;SDS011;27555;50.808;4.402;2023-07-28T11:07:59;2.90;;;2.60;;
41875;SDS011;27555;50.808;4.402;2023-07-28T11:10:29;3.42;;;2.05;;
41875;SDS011;27555;50.808;4.402;2023-07-28T11:12:57;3.05;;;2.10;;
41875;SDS011;27555;50.808;4.402;2023-07-28T11:15:25;5.18;;;1.90;;
41875;SDS011;27555;50.808;4.402;2023-07-28T11:17:51;4.53;;;2.30;;
41875;SDS011;27555;50.808;4.402;2023-07-28T11:22:45;8.85;;;1.80;;
41875;SDS011;27555;50.808;4.402;2023-07-28T11:25:12;1.52;;;1.00;;
41875;SDS011;27555;50.808;4.402;2023-07-28T11:27:38;6.30;;;1.70;;
41875;SDS011;27555;50.808;4.402;2023-07-28T11:30:06;2.38;;;1.38;;
41875;SDS011;27555;50.808;4.402;2023-07-28T11:32:34;1.50;;;1.40;;
41875;SDS011;27555;50.808;4.402;2023-07-28T11:35:07;13.43;;;2.95;;
41875;SDS011;27555;50.808;4.402;2023-07-28T11:37:34;2.08;;;1.55;;
41875;SDS011;27555;50.808;4.402;2023-07-28T11:40:01;5.72;;;1.75;;
41875;SDS011;27555;50.808;4.402;2023-07-28T11:42:31;10.65;;;2.10;;
41875;SDS011;27555;50.808;4.402;2023-07-28T11:45:04;3.90;;;1.60;;
41875;SDS011;27555;50.808;4.402;2023-07-28T11:47:31;4.07;;;1.63;;
41875;SDS011;27555;50.808;4.402;2023-07-28T11:49:57;6.90;;;2.05;;
41875;SDS011;27555;50.808;4.402;2023-07-28T11:52:33;6.72;;;1.52;;
41875;SDS011;27555;50.808;4.402;2023-07-28T11:55:04;3.42;;;1.30;;
41875;SDS011;27555;50.808;4.402;2023-07-28T11:57:31;16.38;;;1.80;;
41875;SDS011;27555;50.808;4.402;2023-07-28T11:59:57;1.92;;;1.30;;
41875;SDS011;27555;50.808;4.402;2023-07-28T12:04:53;4.70;;;1.25;;
41875;SDS011;27555;50.808;4.402;2023-07-28T12:07:20;4.60;;;1.33;;
41875;SDS011;27555;50.808;4.402;2023-07-28T12:09:54;2.40;;;1.23;;
41875;SDS011;27555;50.808;4.402;2023-07-28T12:12:26;2.28;;;1.05;;
41875;SDS011;27555;50.808;4.402;2023-07-28T12:14:56;4.55;;;1.15;;
41875;SDS011;27555;50.808;4.402;2023-07-28T12:17:29;4.82;;;1.35;;
41875;SDS011;27555;50.808;4.402;2023-07-28T12:20:08;2.47;;;1.10;;
41875;SDS011;27555;50.808;4.402;2023-07-28T12:22:40;2.63;;;1.08;;
41875;SDS011;27555;50.808;4.402;2023-07-28T12:25:06;2.78;;;1.17;;
41875;SDS011;27555;50.808;4.402;2023-07-28T12:27:32;1.20;;;1.08;;
41875;SDS011;27555;50.808;4.402;2023-07-28T12:29:58;1.55;;;0.98;;
41875;SDS011;27555;50.808;4.402;2023-07-28T12:32:24;2.05;;;0.88;;
41875;SDS011;27555;50.808;4.402;2023-07-28T12:34:50;1.70;;;1.15;;
41875;SDS011;27555;50.808;4.402;2023-07-28T12:37:16;2.70;;;1.00;;
41875;SDS011;27555;50.808;4.402;2023-07-28T12:39:43;2.17;;;0.98;;
41875;SDS011;27555;50.808;4.402;2023-07-28T12:42:09;2.63;;;0.95;;
41875;SDS011;27555;50.808;4.402;2023-07-28T12:44:36;1.85;;;0.80;;
41875;SDS011;27555;50.808;4.402;2023-07-28T12:47:02;1.50;;;0.95;;
41875;SDS011;27555;50.808;4.402;2023-07-28T12:49:28;7.20;;;1.02;;
41875;SDS011;27555;50.808;4.402;2023-07-28T12:51:55;3.53;;;1.02;;
41875;SDS011;27555;50.808;4.402;2023-07-28T12:54:22;2.92;;;0.60;;
41875;SDS011;27555;50.808;4.402;2023-07-28T12:56:48;7.65;;;1.08;;
41875;SDS011;27555;50.808;4.402;2023-07-28T12:59:14;1.88;;;0.88;;
41875;SDS011;27555;50.808;4.402;2023-07-28T13:01:40;3.35;;;0.50;;
41875;SDS011;27555;50.808;4.402;2023-07-28T13:04:05;5.13;;;0.63;;
41875;SDS011;27555;50.808;4.402;2023-07-28T13:06:31;2.58;;;1.20;;
41875;SDS011;27555;50.808;4.402;2023-07-28T13:08:57;2.40;;;0.82;;
41875;SDS011;27555;50.808;4.402;2023-07-28T13:11:23;2.90;;;0.80;;
41875;SDS011;27555;50.808;4.402;2023-07-28T13:13:48;0.98;;;0.70;;
41875;SDS011;27555;50.808;4.402;2023-07-28T13:16:14;5.43;;;0.98;;
41875;SDS011;27555;50.808;4.402;2023-07-28T13:18:40;1.52;;;0.60;;
41875;SDS011;27555;50.808;4.402;2023-07-28T13:21:08;3.75;;;0.80;;
41875;SDS011;27555;50.808;4.402;2023-07-28T13:23:35;1.08;;;0.90;;
41875;SDS011;27555;50.808;4.402;2023-07-28T13:26:00;3.58;;;0.95;;
41875;SDS011;27555;50.808;4.402;2023-07-28T13:28:29;3.22;;;0.73;;
41875;SDS011;27555;50.808;4.402;2023-07-28T13:30:54;2.00;;;0.90;;
41875;SDS011;27555;50.808;4.402;2023-07-28T13:33:20;1.83;;;0.88;;
41875;SDS011;27555;50.808;4.402;2023-07-28T13:35:46;1.55;;;0.70;;
41875;SDS011;27555;50.808;4.402;2023-07-28T13:38:12;8.85;;;1.42;;
41875;SDS011;27555;50.808;4.402;2023-07-28T13:40:37;4.68;;;0.60;;
41875;SDS011;27555;50.808;4.402;2023-07-28T13:43:03;1.20;;;0.60;;
41875;SDS011;27555;50.808;4.402;2023-07-28T13:45:29;9.23;;;1.10;;
41875;SDS011;27555;50.808;4.402;2023-07-28T13:47:54;3.55;;;1.08;;
41875;SDS011;27555;50.808;4.402;2023-07-28T13:50:20;2.92;;;1.10;;
41875;SDS011;27555;50.808;4.402;2023-07-28T13:52:46;1.08;;;0.80;;
41875;SDS011;27555;50.808;4.402;2023-07-28T13:55:11;3.28;;;0.85;;
41875;SDS011;27555;50.808;4.402;2023-07-28T13:57:37;4.32;;;1.08;;
41875;SDS011;27555;50.808;4.402;2023-07-28T14:00:04;0.95;;;0.55;;
41875;SDS011;27555;50.808;4.402;2023-07-28T14:02:34;3.08;;;0.85;;
41875;SDS011;27555;50.808;4.402;2023-07-28T14:05:00;2.42;;;0.70;;
41875;SDS011;27555;50.808;4.402;2023-07-28T14:07:26;3.03;;;1.23;;
41875;SDS011;27555;50.808;4.402;2023-07-28T14:09:51;3.00;;;0.75;;
41875;SDS011;27555;50.808;4.402;2023-07-28T14:12:17;1.85;;;0.70;;
41875;SDS011;27555;50.808;4.402;2023-07-28T14:14:43;1.77;;;0.60;;
41875;SDS011;27555;50.808;4.402;2023-07-28T14:17:08;0.60;;;0.50;;
41875;SDS011;27555;50.808;4.402;2023-07-28T14:19:34;3.40;;;0.82;;
41875;SDS011;27555;50.808;4.402;2023-07-28T14:22:01;4.10;;;0.70;;
41875;SDS011;27555;50.808;4.402;2023-07-28T14:24:27;2.70;;;0.57;;
41875;SDS011;27555;50.808;4.402;2023-07-28T14:26:52;6.53;;;0.60;;
41875;SDS011;27555;50.808;4.402;2023-07-28T14:29:18;3.35;;;0.90;;
41875;SDS011;27555;50.808;4.402;2023-07-28T14:31:44;1.67;;;0.50;;
41875;SDS011;27555;50.808;4.402;2023-07-28T14:34:09;2.55;;;0.50;;
41875;SDS011;27555;50.808;4.402;2023-07-28T14:36:35;2.25;;;0.60;;
41875;SDS011;27555;50.808;4.402;2023-07-28T14:39:01;2.03;;;0.63;;
41875;SDS011;27555;50.808;4.402;2023-07-28T14:41:27;1.63;;;0.75;;
41875;SDS011;27555;50.808;4.402;2023-07-28T14:43:52;0.80;;;0.50;;
41875;SDS011;27555;50.808;4.402;2023-07-28T14:46:18;3.97;;;0.60;;
41875;SDS011;27555;50.808;4.402;2023-07-28T14:48:45;3.20;;;0.88;;
41875;SDS011;27555;50.808;4.402;2023-07-28T14:51:10;1.00;;;0.60;;
41875;SDS011;27555;50.808;4.402;2023-07-28T14:53:37;1.02;;;0.57;;
41875;SDS011;27555;50.808;4.402;2023-07-28T14:56:07;4.45;;;0.80;;
41875;SDS011;27555;50.808;4.402;2023-07-28T14:58:33;1.60;;;0.82;;
41875;SDS011;27555;50.808;4.402;2023-07-28T15:00:59;12.20;;;1.00;;
41875;SDS011;27555;50.808;4.402;2023-07-28T15:03:26;1.15;;;0.73;;
41875;SDS011;27555;50.808;4.402;2023-07-28T15:05:54;1.25;;;0.77;;
41875;SDS011;27555;50.808;4.402;2023-07-28T15:08:21;4.63;;;0.70;;